KBCK

Details ICAO KBCK
Name Black River Falls Area
Region United States
Timezone America/Chicago (UTC-6.0)
Plans Departing 1
Arriving 2
Stats Elevation 836 ft / 255 m (AMSL)
Location 44.250739° -90.855282°
Runways 1
Magnetic Variation 1.684° W
Sunrise 2017-12-15 13:33:42 UTC / 2017-12-15 07:33:42 Local
Sunset 2017-12-15 22:26:28 UTC / 2017-12-15 16:26:28 Local
Advertisement - Login to hide

Runways

ID Width Length Bearing (true) Bearing (mag) Surface Threshold Offset Overrun Length
08 75 ft / 23 m 4,591 ft / 1,399 m 80.41° 82.09° Asphalt 0 ft / 0 m 0 ft / 0 m
26 75 ft / 23 m 4,591 ft / 1,399 m 260.43° 262.11° Asphalt 0 ft / 0 m 0 ft / 0 m

Map

Weather


0- 5 10 15 20 25 30 35+ Temperature / ° C

Clouds and Precipitation
Forecast for 2017-12-16 00:00 UTC. Updated an hour ago

Ground ~20,000 ft ~40,000 ft Winds

METAR

KBCK 151955Z AUTO 00000KT 10SM OVC022 M02/M08 A2981 RMK AO2 T10251084

TAF

Not found

Frequencies

Unicom 122.90 MHz CTAF
Warning: Do not use this data for real-world aviation or navigation. No guarantee of current accuracy is given.